sensor_id;sensor_type;location;lat;lon;timestamp;pressure;altitude;pressure_sealevel;temperature;humidity
52839;BME280;39219;53.678;9.856;2023-05-03T00:02:09;78876.13;;;-147.77;86.70
52839;BME280;39219;53.678;9.856;2023-05-03T00:04:36;78878.13;;;-147.77;86.97
52839;BME280;39219;53.678;9.856;2023-05-03T00:07:04;78888.25;;;-147.77;87.03
52839;BME280;39219;53.678;9.856;2023-05-03T00:09:32;78896.34;;;-147.77;86.86
52839;BME280;39219;53.678;9.856;2023-05-03T00:11:58;78908.50;;;-147.77;86.98
52839;BME280;39219;53.678;9.856;2023-05-03T00:14:26;78914.56;;;-147.77;86.66
52839;BME280;39219;53.678;9.856;2023-05-03T00:16:52;78908.50;;;-147.77;87.83
52839;BME280;39219;53.678;9.856;2023-05-03T00:19:18;78922.66;;;-147.77;87.97
52839;BME280;39219;53.678;9.856;2023-05-03T00:21:45;78926.72;;;-147.77;87.30
52839;BME280;39219;53.678;9.856;2023-05-03T00:24:13;78928.75;;;-147.77;88.04
52839;BME280;39219;53.678;9.856;2023-05-03T00:26:39;78932.78;;;-147.77;87.67
52839;BME280;39219;53.678;9.856;2023-05-03T00:29:06;78946.94;;;-147.77;87.99
52839;BME280;39219;53.678;9.856;2023-05-03T00:31:32;78957.06;;;-147.77;88.43
52839;BME280;39219;53.678;9.856;2023-05-03T00:33:58;78973.28;;;-147.77;87.94
52839;BME280;39219;53.678;9.856;2023-05-03T00:36:25;78981.38;;;-147.77;88.82
52839;BME280;39219;53.678;9.856;2023-05-03T00:38:52;78961.13;;;-147.77;89.26
52839;BME280;39219;53.678;9.856;2023-05-03T00:41:20;78944.94;;;-147.77;89.51
52839;BME280;39219;53.678;9.856;2023-05-03T00:43:48;78938.84;;;-147.77;89.55
52839;BME280;39219;53.678;9.856;2023-05-03T00:46:15;78948.97;;;-147.77;89.52
52839;BME280;39219;53.678;9.856;2023-05-03T00:48:41;78961.13;;;-147.77;89.41
52839;BME280;39219;53.678;9.856;2023-05-03T00:51:09;78973.28;;;-147.77;89.53
52839;BME280;39219;53.678;9.856;2023-05-03T00:53:38;78963.16;;;-147.77;90.11
52839;BME280;39219;53.678;9.856;2023-05-03T00:56:05;78973.28;;;-147.77;89.85
52839;BME280;39219;53.678;9.856;2023-05-03T00:58:34;78981.38;;;-147.77;89.64
52839;BME280;39219;53.678;9.856;2023-05-03T01:01:04;78983.38;;;-147.77;89.80
52839;BME280;39219;53.678;9.856;2023-05-03T01:03:30;78971.25;;;-147.77;90.83
52839;BME280;39219;53.678;9.856;2023-05-03T01:06:04;78973.28;;;-147.77;90.38
52839;BME280;39219;53.678;9.856;2023-05-03T01:08:37;78979.34;;;-147.77;91.08
52839;BME280;39219;53.678;9.856;2023-05-03T01:11:07;78971.25;;;-147.77;91.08
52839;BME280;39219;53.678;9.856;2023-05-03T01:13:45;78957.06;;;-147.77;91.35
52839;BME280;39219;53.678;9.856;2023-05-03T01:16:20;78928.75;;;-147.77;91.29
52839;BME280;39219;53.678;9.856;2023-05-03T01:18:49;78942.91;;;-147.77;90.54
52839;BME280;39219;53.678;9.856;2023-05-03T01:21:18;78936.84;;;-147.77;90.98
52839;BME280;39219;53.678;9.856;2023-05-03T01:23:54;78932.78;;;-147.77;91.23
52839;BME280;39219;53.678;9.856;2023-05-03T01:26:23;78928.75;;;-147.77;91.53
52839;BME280;39219;53.678;9.856;2023-05-03T01:28:50;78908.50;;;-147.77;91.67
52839;BME280;39219;53.678;9.856;2023-05-03T01:31:21;78894.31;;;-147.77;91.85
52839;BME280;39219;53.678;9.856;2023-05-03T01:33:57;78886.22;;;-147.77;91.26
52839;BME280;39219;53.678;9.856;2023-05-03T01:36:29;78882.19;;;-147.77;91.13
52839;BME280;39219;53.678;9.856;2023-05-03T01:38:59;78861.94;;;-147.77;90.90
52839;BME280;39219;53.678;9.856;2023-05-03T01:41:31;78847.78;;;-147.77;89.29
52839;BME280;39219;53.678;9.856;2023-05-03T01:43:58;78849.78;;;-147.77;89.68
52839;BME280;39219;53.678;9.856;2023-05-03T01:46:25;78829.56;;;-147.77;89.20
52839;BME280;39219;53.678;9.856;2023-05-03T01:48:52;78825.50;;;-147.77;89.14
52839;BME280;39219;53.678;9.856;2023-05-03T01:51:18;78837.66;;;-147.77;89.44
52839;BME280;39219;53.678;9.856;2023-05-03T01:53:45;78841.69;;;-147.77;89.59
52839;BME280;39219;53.678;9.856;2023-05-03T01:56:11;78843.72;;;-147.77;89.63
52839;BME280;39219;53.678;9.856;2023-05-03T01:58:39;78843.72;;;-147.77;89.83
52839;BME280;39219;53.678;9.856;2023-05-03T02:01:05;78815.38;;;-147.77;89.71
52839;BME280;39219;53.678;9.856;2023-05-03T02:03:32;78797.16;;;-147.77;88.95
52839;BME280;39219;53.678;9.856;2023-05-03T02:05:58;78807.28;;;-147.77;89.16
52839;BME280;39219;53.678;9.856;2023-05-03T02:08:25;78793.13;;;-147.77;89.04
52839;BME280;39219;53.678;9.856;2023-05-03T02:10:51;78783.00;;;-147.77;89.25
52839;BME280;39219;53.678;9.856;2023-05-03T02:13:18;78776.94;;;-147.77;89.22
52839;BME280;39219;53.678;9.856;2023-05-03T02:15:46;78787.06;;;-147.77;88.83
52839;BME280;39219;53.678;9.856;2023-05-03T02:18:12;78795.16;;;-147.77;88.72
52839;BME280;39219;53.678;9.856;2023-05-03T02:20:43;78799.19;;;-147.77;88.79
52839;BME280;39219;53.678;9.856;2023-05-03T02:23:10;78803.25;;;-147.77;88.79
52839;BME280;39219;53.678;9.856;2023-05-03T02:25:36;78801.22;;;-147.77;88.89
52839;BME280;39219;53.678;9.856;2023-05-03T02:28:03;78793.13;;;-147.77;89.18
52839;BME280;39219;53.678;9.856;2023-05-03T02:30:30;78795.16;;;-147.77;89.27
52839;BME280;39219;53.678;9.856;2023-05-03T02:32:57;78785.03;;;-147.77;89.15
52839;BME280;39219;53.678;9.856;2023-05-03T02:35:24;78785.03;;;-147.77;89.09
52839;BME280;39219;53.678;9.856;2023-05-03T02:37:50;78780.97;;;-147.77;88.74
52839;BME280;39219;53.678;9.856;2023-05-03T02:40:17;78787.06;;;-147.77;88.78
52839;BME280;39219;53.678;9.856;2023-05-03T02:42:43;78785.03;;;-147.77;88.91
52839;BME280;39219;53.678;9.856;2023-05-03T02:45:10;78785.03;;;-147.77;88.78
52839;BME280;39219;53.678;9.856;2023-05-03T02:47:36;78780.97;;;-147.77;89.23
52839;BME280;39219;53.678;9.856;2023-05-03T02:50:05;78776.94;;;-147.77;89.25
52839;BME280;39219;53.678;9.856;2023-05-03T02:52:32;78785.03;;;-147.77;89.48
52839;BME280;39219;53.678;9.856;2023-05-03T02:54:58;78778.97;;;-147.77;89.50
52839;BME280;39219;53.678;9.856;2023-05-03T02:57:25;78776.94;;;-147.77;89.84
52839;BME280;39219;53.678;9.856;2023-05-03T02:59:51;78770.88;;;-147.77;89.63
52839;BME280;39219;53.678;9.856;2023-05-03T03:02:18;78766.81;;;-147.77;89.23
52839;BME280;39219;53.678;9.856;2023-05-03T03:04:46;78778.97;;;-147.77;88.90
52839;BME280;39219;53.678;9.856;2023-05-03T03:07:14;78793.13;;;-147.77;88.99
52839;BME280;39219;53.678;9.856;2023-05-03T03:09:40;78785.03;;;-147.77;89.74
52839;BME280;39219;53.678;9.856;2023-05-03T03:12:07;78785.03;;;-147.77;89.61
52839;BME280;39219;53.678;9.856;2023-05-03T03:14:33;78791.09;;;-147.77;89.92
52839;BME280;39219;53.678;9.856;2023-05-03T03:17:00;78803.25;;;-147.77;90.27
52839;BME280;39219;53.678;9.856;2023-05-03T03:19:26;78807.28;;;-147.77;90.71
52839;BME280;39219;53.678;9.856;2023-05-03T03:21:53;78789.06;;;-147.77;91.10
52839;BME280;39219;53.678;9.856;2023-05-03T03:24:21;78799.19;;;-147.77;91.16
52839;BME280;39219;53.678;9.856;2023-05-03T03:26:47;78801.22;;;-147.77;91.57
52839;BME280;39219;53.678;9.856;2023-05-03T03:29:13;78823.50;;;-147.77;91.55
52839;BME280;39219;53.678;9.856;2023-05-03T03:31:40;78827.53;;;-147.77;92.41
52839;BME280;39219;53.678;9.856;2023-05-03T03:34:06;78839.69;;;-147.77;92.59
52839;BME280;39219;53.678;9.856;2023-05-03T03:36:33;78835.63;;;-147.77;93.08
52839;BME280;39219;53.678;9.856;2023-05-03T03:39:02;78823.50;;;-147.77;93.49
52839;BME280;39219;53.678;9.856;2023-05-03T03:41:30;78809.31;;;-147.77;92.94
52839;BME280;39219;53.678;9.856;2023-05-03T03:43:57;78797.16;;;-147.77;92.84
52839;BME280;39219;53.678;9.856;2023-05-03T03:46:23;78793.13;;;-147.77;92.75
52839;BME280;39219;53.678;9.856;2023-05-03T03:48:50;78785.03;;;-147.77;92.59
52839;BME280;39219;53.678;9.856;2023-05-03T03:51:16;78774.91;;;-147.77;92.31
52839;BME280;39219;53.678;9.856;2023-05-03T03:53:43;78770.88;;;-147.77;91.87
52839;BME280;39219;53.678;9.856;2023-05-03T03:56:09;78766.81;;;-147.77;90.99
52839;BME280;39219;53.678;9.856;2023-05-03T03:58:37;78758.72;;;-147.77;91.46
52839;BME280;39219;53.678;9.856;2023-05-03T04:01:04;78754.66;;;-147.77;91.53
52839;BME280;39219;53.678;9.856;2023-05-03T04:03:31;78758.72;;;-147.77;91.43
52839;BME280;39219;53.678;9.856;2023-05-03T04:05:57;78744.53;;;-147.77;91.90
52839;BME280;39219;53.678;9.856;2023-05-03T04:08:24;78722.28;;;-147.77;91.80
52839;BME280;39219;53.678;9.856;2023-05-03T04:10:50;78722.28;;;-147.77;91.44
52839;BME280;39219;53.678;9.856;2023-05-03T04:13:16;78714.19;;;-147.77;90.98
52839;BME280;39219;53.678;9.856;2023-05-03T04:15:44;78704.06;;;-147.77;90.09
52839;BME280;39219;53.678;9.856;2023-05-03T04:18:11;78706.09;;;-147.77;89.30
52839;BME280;39219;53.678;9.856;2023-05-03T04:20:37;78693.94;;;-147.77;89.80
52839;BME280;39219;53.678;9.856;2023-05-03T04:23:04;78693.94;;;-147.77;90.01
52839;BME280;39219;53.678;9.856;2023-05-03T04:25:30;78693.94;;;-147.77;90.10
52839;BME280;39219;53.678;9.856;2023-05-03T04:27:57;78677.75;;;-147.77;90.45
52839;BME280;39219;53.678;9.856;2023-05-03T04:30:23;78665.63;;;-147.77;90.60
52839;BME280;39219;53.678;9.856;2023-05-03T04:32:51;78649.41;;;-147.77;90.26
52839;BME280;39219;53.678;9.856;2023-05-03T04:35:19;78635.25;;;-147.77;89.74
52839;BME280;39219;53.678;9.856;2023-05-03T04:37:46;78637.28;;;-147.77;89.60
52839;BME280;39219;53.678;9.856;2023-05-03T04:40:12;78635.25;;;-147.77;89.82
52839;BME280;39219;53.678;9.856;2023-05-03T04:42:41;78627.16;;;-147.77;89.69
52839;BME280;39219;53.678;9.856;2023-05-03T04:45:08;78600.84;;;-147.77;88.87
52839;BME280;39219;53.678;9.856;2023-05-03T04:47:35;78596.81;;;-147.77;88.38
52839;BME280;39219;53.678;9.856;2023-05-03T04:50:04;78596.81;;;-147.77;87.30
52839;BME280;39219;53.678;9.856;2023-05-03T04:52:32;78592.75;;;-147.77;87.62
52839;BME280;39219;53.678;9.856;2023-05-03T04:54:58;78570.50;;;-147.77;88.11
52839;BME280;39219;53.678;9.856;2023-05-03T04:57:25;78550.25;;;-147.77;88.13
52839;BME280;39219;53.678;9.856;2023-05-03T04:59:51;78519.88;;;-147.77;86.54
52839;BME280;39219;53.678;9.856;2023-05-03T05:02:19;78517.88;;;-147.77;84.21
52839;BME280;39219;53.678;9.856;2023-05-03T05:04:47;78511.78;;;-147.77;84.51
52839;BME280;39219;53.678;9.856;2023-05-03T05:07:14;78509.78;;;-147.77;84.99
52839;BME280;39219;53.678;9.856;2023-05-03T05:09:42;78477.38;;;-147.77;85.05
52839;BME280;39219;53.678;9.856;2023-05-03T05:12:08;78455.13;;;-147.77;84.32
52839;BME280;39219;53.678;9.856;2023-05-03T05:14:35;78447.03;;;-147.77;83.76
52839;BME280;39219;53.678;9.856;2023-05-03T05:17:01;78430.84;;;-147.77;84.07
52839;BME280;39219;53.678;9.856;2023-05-03T05:19:28;78404.53;;;-147.77;83.94
52839;BME280;39219;53.678;9.856;2023-05-03T05:21:54;78372.16;;;-147.77;84.37
52839;BME280;39219;53.678;9.856;2023-05-03T05:24:22;78353.94;;;-147.77;82.71
52839;BME280;39219;53.678;9.856;2023-05-03T05:26:48;78331.66;;;-147.77;81.20
52839;BME280;39219;53.678;9.856;2023-05-03T05:29:15;78319.53;;;-147.77;79.84
52839;BME280;39219;53.678;9.856;2023-05-03T05:31:41;78301.31;;;-147.77;79.62
52839;BME280;39219;53.678;9.856;2023-05-03T05:34:08;78256.78;;;-147.77;79.78
52839;BME280;39219;53.678;9.856;2023-05-03T05:36:34;78202.16;;;-147.77;78.25
52839;BME280;39219;53.678;9.856;2023-05-03T05:39:01;78149.53;;;-147.77;76.63
52839;BME280;39219;53.678;9.856;2023-05-03T05:41:29;78117.16;;;-147.77;74.47
52839;BME280;39219;53.678;9.856;2023-05-03T05:43:57;78082.75;;;-147.77;72.25
52839;BME280;39219;53.678;9.856;2023-05-03T05:46:23;78062.53;;;-147.77;72.94
52839;BME280;39219;53.678;9.856;2023-05-03T05:48:50;78028.13;;;-147.77;71.95
52839;BME280;39219;53.678;9.856;2023-05-03T05:51:17;77951.22;;;-147.77;68.37
52839;BME280;39219;53.678;9.856;2023-05-03T05:53:44;77827.78;;;-147.77;69.02
52839;BME280;39219;53.678;9.856;2023-05-03T05:56:10;77712.44;;;-147.77;65.62
52839;BME280;39219;53.678;9.856;2023-05-03T05:58:38;77560.69;;;-147.77;64.63
52839;BME280;39219;53.678;9.856;2023-05-03T06:01:05;77441.31;;;-147.77;60.07
52839;BME280;39219;53.678;9.856;2023-05-03T06:03:32;77263.25;;;-147.77;58.76
52839;BME280;39219;53.678;9.856;2023-05-03T06:05:59;77069.03;;;-147.77;48.78
52839;BME280;39219;53.678;9.856;2023-05-03T06:08:26;76909.19;;;-147.77;44.03
52839;BME280;39219;53.678;9.856;2023-05-03T06:10:52;76888.97;;;-147.77;45.93
52839;BME280;39219;53.678;9.856;2023-05-03T06:13:18;76876.81;;;-147.77;42.43
52839;BME280;39219;53.678;9.856;2023-05-03T06:15:47;76814.09;;;-147.77;39.75
52839;BME280;39219;53.678;9.856;2023-05-03T06:18:13;76680.59;;;-147.77;37.74
52839;BME280;39219;53.678;9.856;2023-05-03T06:20:40;76706.88;;;-147.77;34.55
52839;BME280;39219;53.678;9.856;2023-05-03T06:23:06;76884.91;;;-147.77;34.94
52839;BME280;39219;53.678;9.856;2023-05-03T06:25:33;77101.38;;;-147.77;38.35
52839;BME280;39219;53.678;9.856;2023-05-03T06:28:00;77206.59;;;-147.77;39.05
52839;BME280;39219;53.678;9.856;2023-05-03T06:30:26;77024.50;;;-147.77;36.84
52839;BME280;39219;53.678;9.856;2023-05-03T06:32:54;76951.69;;;-147.77;35.98
52839;BME280;39219;53.678;9.856;2023-05-03T06:35:21;76971.91;;;-147.77;35.33
52839;BME280;39219;53.678;9.856;2023-05-03T06:37:47;76969.88;;;-147.77;36.19
52839;BME280;39219;53.678;9.856;2023-05-03T06:40:14;76868.72;;;-147.77;33.39
52839;BME280;39219;53.678;9.856;2023-05-03T06:42:41;76801.97;;;-147.77;33.50
52839;BME280;39219;53.678;9.856;2023-05-03T06:45:08;76806.03;;;-147.77;32.51
52839;BME280;39219;53.678;9.856;2023-05-03T06:47:34;76783.75;;;-147.77;32.08
52839;BME280;39219;53.678;9.856;2023-05-03T06:50:03;76858.63;;;-147.77;31.90
52839;BME280;39219;53.678;9.856;2023-05-03T06:52:30;76779.72;;;-147.77;30.63
52839;BME280;39219;53.678;9.856;2023-05-03T06:54:57;76650.25;;;-147.77;30.50
52839;BME280;39219;53.678;9.856;2023-05-03T06:57:23;76555.16;;;-147.77;30.38
52839;BME280;39219;53.678;9.856;2023-05-03T06:59:50;76399.41;;;-147.77;29.35
52839;BME280;39219;53.678;9.856;2023-05-03T07:02:16;76348.84;;;-147.77;29.28
52839;BME280;39219;53.678;9.856;2023-05-03T07:04:43;76381.19;;;-147.77;28.00
52839;BME280;39219;53.678;9.856;2023-05-03T07:07:10;76261.84;;;-147.77;26.74
52839;BME280;39219;53.678;9.856;2023-05-03T07:09:37;76290.19;;;-147.77;26.73
52839;BME280;39219;53.678;9.856;2023-05-03T07:12:04;76375.13;;;-147.77;27.57
52839;BME280;39219;53.678;9.856;2023-05-03T07:14:30;76579.44;;;-147.77;27.43
52839;BME280;39219;53.678;9.856;2023-05-03T07:16:57;76858.63;;;-147.77;29.43
52839;BME280;39219;53.678;9.856;2023-05-03T07:19:23;77127.69;;;-147.77;31.80
52839;BME280;39219;53.678;9.856;2023-05-03T07:21:50;77216.72;;;-147.77;33.62
52839;BME280;39219;53.678;9.856;2023-05-03T07:24:18;77151.97;;;-147.77;34.20
52839;BME280;39219;53.678;9.856;2023-05-03T07:26:44;76984.06;;;-147.77;32.21
52839;BME280;39219;53.678;9.856;2023-05-03T07:29:11;77097.34;;;-147.77;32.17
52839;BME280;39219;53.678;9.856;2023-05-03T07:31:38;77137.81;;;-147.77;33.14
52839;BME280;39219;53.678;9.856;2023-05-03T07:34:04;77067.00;;;-147.77;32.18
52839;BME280;39219;53.678;9.856;2023-05-03T07:36:31;77158.03;;;-147.77;32.19
52839;BME280;39219;53.678;9.856;2023-05-03T07:38:58;77234.91;;;-147.77;33.12
52839;BME280;39219;53.678;9.856;2023-05-03T07:41:25;77340.13;;;-147.77;33.00
52839;BME280;39219;53.678;9.856;2023-05-03T07:43:52;77390.72;;;-147.77;34.66
52839;BME280;39219;53.678;9.856;2023-05-03T07:46:19;77463.56;;;-147.77;34.78
52839;BME280;39219;53.678;9.856;2023-05-03T07:48:45;77532.34;;;-147.77;36.29
52839;BME280;39219;53.678;9.856;2023-05-03T07:51:12;77595.06;;;-147.77;37.02
52839;BME280;39219;53.678;9.856;2023-05-03T07:53:38;77639.59;;;-147.77;37.29
52839;BME280;39219;53.678;9.856;2023-05-03T07:56:05;77671.97;;;-147.77;37.82
52839;BME280;39219;53.678;9.856;2023-05-03T07:58:33;77637.56;;;-147.77;38.01
52839;BME280;39219;53.678;9.856;2023-05-03T08:01:01;77568.78;;;-147.77;39.10
52839;BME280;39219;53.678;9.856;2023-05-03T08:03:27;77301.69;;;-147.77;37.61
52839;BME280;39219;53.678;9.856;2023-05-03T08:05:54;77026.53;;;-147.77;32.04
52839;BME280;39219;53.678;9.856;2023-05-03T08:08:20;76826.25;;;-147.77;30.88
52839;BME280;39219;53.678;9.856;2023-05-03T08:10:48;76862.66;;;-147.77;30.80
52839;BME280;39219;53.678;9.856;2023-05-03T08:13:17;77064.97;;;-147.77;31.81
52839;BME280;39219;53.678;9.856;2023-05-03T08:15:44;77245.03;;;-147.77;33.38
52839;BME280;39219;53.678;9.856;2023-05-03T08:18:11;77330.00;;;-147.77;35.01
52839;BME280;39219;53.678;9.856;2023-05-03T08:20:37;77338.09;;;-147.77;35.91
52839;BME280;39219;53.678;9.856;2023-05-03T08:23:04;77340.13;;;-147.77;35.52
52839;BME280;39219;53.678;9.856;2023-05-03T08:25:31;77370.47;;;-147.77;35.41
52839;BME280;39219;53.678;9.856;2023-05-03T08:27:57;77461.53;;;-147.77;35.56
52839;BME280;39219;53.678;9.856;2023-05-03T08:30:24;77506.03;;;-147.77;36.24
52839;BME280;39219;53.678;9.856;2023-05-03T08:32:52;77562.69;;;-147.77;37.11
52839;BME280;39219;53.678;9.856;2023-05-03T08:35:18;77564.72;;;-147.77;37.20
52839;BME280;39219;53.678;9.856;2023-05-03T08:37:45;77534.38;;;-147.77;37.68
52839;BME280;39219;53.678;9.856;2023-05-03T08:40:12;77528.31;;;-147.77;37.51
52839;BME280;39219;53.678;9.856;2023-05-03T08:42:42;77508.06;;;-147.77;37.29
52839;BME280;39219;53.678;9.856;2023-05-03T08:45:10;77544.50;;;-147.77;35.49
52839;BME280;39219;53.678;9.856;2023-05-03T08:47:38;77591.03;;;-147.77;36.34
52839;BME280;39219;53.678;9.856;2023-05-03T08:50:08;77534.38;;;-147.77;36.68
52839;BME280;39219;53.678;9.856;2023-05-03T08:52:35;77467.59;;;-147.77;36.56
52839;BME280;39219;53.678;9.856;2023-05-03T08:55:03;77376.56;;;-147.77;34.77
52839;BME280;39219;53.678;9.856;2023-05-03T08:57:29;77241.00;;;-147.77;35.06
52839;BME280;39219;53.678;9.856;2023-05-03T08:59:56;77247.06;;;-147.77;35.24
52839;BME280;39219;53.678;9.856;2023-05-03T09:02:26;77253.13;;;-147.77;35.04
52839;BME280;39219;53.678;9.856;2023-05-03T09:04:53;77319.91;;;-147.77;34.47
52839;BME280;39219;53.678;9.856;2023-05-03T09:07:21;77380.59;;;-147.77;35.50
52839;BME280;39219;53.678;9.856;2023-05-03T09:09:48;77526.28;;;-147.77;36.49
52839;BME280;39219;53.678;9.856;2023-05-03T09:12:32;77548.53;;;-147.77;36.17
52839;BME280;39219;53.678;9.856;2023-05-03T09:14:59;77603.16;;;-147.77;36.56
52839;BME280;39219;53.678;9.856;2023-05-03T09:17:26;77609.25;;;-147.77;37.27
52839;BME280;39219;53.678;9.856;2023-05-03T09:19:54;77550.56;;;-147.77;37.53
52839;BME280;39219;53.678;9.856;2023-05-03T09:22:26;77408.94;;;-147.77;37.18
52839;BME280;39219;53.678;9.856;2023-05-03T09:24:54;77222.78;;;-147.77;35.64
52839;BME280;39219;53.678;9.856;2023-05-03T09:27:22;77151.97;;;-147.77;32.51
52839;BME280;39219;53.678;9.856;2023-05-03T09:29:49;77176.25;;;-147.77;32.15
52839;BME280;39219;53.678;9.856;2023-05-03T09:32:16;77279.44;;;-147.77;32.09
52839;BME280;39219;53.678;9.856;2023-05-03T09:34:43;77358.34;;;-147.77;33.45
52839;BME280;39219;53.678;9.856;2023-05-03T09:37:11;77388.69;;;-147.77;33.19
52839;BME280;39219;53.678;9.856;2023-05-03T09:39:41;77459.50;;;-147.77;33.71
52839;BME280;39219;53.678;9.856;2023-05-03T09:42:12;77497.94;;;-147.77;33.94
52839;BME280;39219;53.678;9.856;2023-05-03T09:44:41;77483.78;;;-147.77;34.90
52839;BME280;39219;53.678;9.856;2023-05-03T09:47:08;77429.16;;;-147.77;35.72
52839;BME280;39219;53.678;9.856;2023-05-03T09:49:35;77372.50;;;-147.77;35.80
52839;BME280;39219;53.678;9.856;2023-05-03T09:52:02;77321.91;;;-147.77;35.11
52839;BME280;39219;53.678;9.856;2023-05-03T09:54:30;77281.47;;;-147.77;34.68
52839;BME280;39219;53.678;9.856;2023-05-03T09:56:59;77305.75;;;-147.77;35.82
52839;BME280;39219;53.678;9.856;2023-05-03T09:59:26;77364.41;;;-147.77;36.39
52839;BME280;39219;53.678;9.856;2023-05-03T10:01:56;77281.47;;;-147.77;35.05
52839;BME280;39219;53.678;9.856;2023-05-03T10:04:25;77255.16;;;-147.77;33.14
52839;BME280;39219;53.678;9.856;2023-05-03T10:06:56;77281.47;;;-147.77;33.25
52839;BME280;39219;53.678;9.856;2023-05-03T10:09:28;77251.09;;;-147.77;33.14
52839;BME280;39219;53.678;9.856;2023-05-03T10:11:59;77198.50;;;-147.77;32.72
52839;BME280;39219;53.678;9.856;2023-05-03T10:14:27;77220.75;;;-147.77;32.46
52839;BME280;39219;53.678;9.856;2023-05-03T10:16:57;77238.97;;;-147.77;33.81
52839;BME280;39219;53.678;9.856;2023-05-03T10:19:28;77208.63;;;-147.77;33.63
52839;BME280;39219;53.678;9.856;2023-05-03T10:22:02;77226.81;;;-147.77;34.26
52839;BME280;39219;53.678;9.856;2023-05-03T10:24:29;77218.75;;;-147.77;33.37
52839;BME280;39219;53.678;9.856;2023-05-03T10:26:56;77224.81;;;-147.77;34.25
52839;BME280;39219;53.678;9.856;2023-05-03T10:29:50;77238.97;;;-147.77;34.11
52839;BME280;39219;53.678;9.856;2023-05-03T10:32:35;77212.66;;;-147.77;34.76
52839;BME280;39219;53.678;9.856;2023-05-03T10:35:07;77192.44;;;-147.77;33.44
52839;BME280;39219;53.678;9.856;2023-05-03T10:37:34;77202.56;;;-147.77;33.19
52839;BME280;39219;53.678;9.856;2023-05-03T10:40:07;77224.81;;;-147.77;34.20
52839;BME280;39219;53.678;9.856;2023-05-03T10:42:35;77236.94;;;-147.77;33.13
52839;BME280;39219;53.678;9.856;2023-05-03T10:45:07;77202.56;;;-147.77;33.24
52839;BME280;39219;53.678;9.856;2023-05-03T10:47:34;77212.66;;;-147.77;34.47
52839;BME280;39219;53.678;9.856;2023-05-03T10:50:23;77184.34;;;-147.77;36.52
52839;BME280;39219;53.678;9.856;2023-05-03T10:52:50;77137.81;;;-147.77;35.35
52839;BME280;39219;53.678;9.856;2023-05-03T10:55:18;77162.09;;;-147.77;36.14
52839;BME280;39219;53.678;9.856;2023-05-03T10:57:46;77117.56;;;-147.77;33.41
52839;BME280;39219;53.678;9.856;2023-05-03T11:00:18;77046.75;;;-147.77;35.26
52839;BME280;39219;53.678;9.856;2023-05-03T11:03:08;76986.06;;;-147.77;33.02
52839;BME280;39219;53.678;9.856;2023-05-03T11:05:38;77067.00;;;-147.77;31.29
52839;BME280;39219;53.678;9.856;2023-05-03T11:08:12;77117.56;;;-147.77;34.54
52839;BME280;39219;53.678;9.856;2023-05-03T11:10:40;77216.72;;;-147.77;32.63
52839;BME280;39219;53.678;9.856;2023-05-03T11:13:06;77162.09;;;-147.77;34.16
52839;BME280;39219;53.678;9.856;2023-05-03T11:15:34;77119.59;;;-147.77;33.75
52839;BME280;39219;53.678;9.856;2023-05-03T11:18:01;77109.47;;;-147.77;34.32
52839;BME280;39219;53.678;9.856;2023-05-03T11:20:28;77160.06;;;-147.77;32.45
52839;BME280;39219;53.678;9.856;2023-05-03T11:22:55;77241.00;;;-147.77;33.21
52839;BME280;39219;53.678;9.856;2023-05-03T11:25:22;77295.63;;;-147.77;34.36
52839;BME280;39219;53.678;9.856;2023-05-03T11:27:48;77380.59;;;-147.77;34.34
52839;BME280;39219;53.678;9.856;2023-05-03T11:30:15;77485.81;;;-147.77;34.28
52839;BME280;39219;53.678;9.856;2023-05-03T11:32:43;77524.25;;;-147.77;35.01
52839;BME280;39219;53.678;9.856;2023-05-03T11:35:11;77479.75;;;-147.77;37.02
52839;BME280;39219;53.678;9.856;2023-05-03T11:37:40;77374.53;;;-147.77;36.34
52839;BME280;39219;53.678;9.856;2023-05-03T11:40:13;77350.25;;;-147.77;34.81
52839;BME280;39219;53.678;9.856;2023-05-03T11:42:49;77342.16;;;-147.77;35.08
52839;BME280;39219;53.678;9.856;2023-05-03T11:45:16;77305.75;;;-147.77;35.37
52839;BME280;39219;53.678;9.856;2023-05-03T11:47:45;77261.22;;;-147.77;36.24
52839;BME280;39219;53.678;9.856;2023-05-03T11:50:11;77196.47;;;-147.77;33.85
52839;BME280;39219;53.678;9.856;2023-05-03T11:52:38;77115.56;;;-147.77;33.17
52839;BME280;39219;53.678;9.856;2023-05-03T11:55:06;77123.66;;;-147.77;38.13
52839;BME280;39219;53.678;9.856;2023-05-03T11:57:35;77058.91;;;-147.77;34.70
52839;BME280;39219;53.678;9.856;2023-05-03T12:00:13;77127.69;;;-147.77;36.55
52839;BME280;39219;53.678;9.856;2023-05-03T12:02:41;77046.75;;;-147.77;36.67
52839;BME280;39219;53.678;9.856;2023-05-03T12:05:09;76980.00;;;-147.77;34.22
52839;BME280;39219;53.678;9.856;2023-05-03T12:07:36;77060.94;;;-147.77;33.20
52839;BME280;39219;53.678;9.856;2023-05-03T12:10:16;77145.91;;;-147.77;33.08
52839;BME280;39219;53.678;9.856;2023-05-03T12:12:53;77212.66;;;-147.77;34.88
52839;BME280;39219;53.678;9.856;2023-05-03T12:15:31;77234.91;;;-147.77;34.21
52839;BME280;39219;53.678;9.856;2023-05-03T12:17:59;77245.03;;;-147.77;34.34
52839;BME280;39219;53.678;9.856;2023-05-03T12:20:28;77245.03;;;-147.77;34.37
52839;BME280;39219;53.678;9.856;2023-05-03T12:22:59;77289.56;;;-147.77;33.80
52839;BME280;39219;53.678;9.856;2023-05-03T12:25:26;77362.38;;;-147.77;34.00
52839;BME280;39219;53.678;9.856;2023-05-03T12:27:54;77323.94;;;-147.77;37.49
52839;BME280;39219;53.678;9.856;2023-05-03T12:30:21;77269.31;;;-147.77;37.71
52839;BME280;39219;53.678;9.856;2023-05-03T12:32:48;77182.31;;;-147.77;37.29
52839;BME280;39219;53.678;9.856;2023-05-03T12:35:16;77127.69;;;-147.77;39.02
52839;BME280;39219;53.678;9.856;2023-05-03T12:37:44;77079.13;;;-147.77;37.94
52839;BME280;39219;53.678;9.856;2023-05-03T12:40:12;77060.94;;;-147.77;34.85
52839;BME280;39219;53.678;9.856;2023-05-03T12:42:39;77000.22;;;-147.77;35.54
52839;BME280;39219;53.678;9.856;2023-05-03T12:45:06;77091.28;;;-147.77;33.02